Observation data for Morton on 02/14/2017      Previous  Date       Current Mesonet Observations  Soil Data  Daily Summary Page  Observations in Plain Language
KMNS 140600Z 34006KT 04/02 A3005 RMK A01 T00350020  RH  091%=      5-min Rain = 0
KMNS 140605Z 34006KT 04/02 A3005 RMK A01 T00350020  RH  091%=      5-min Rain = 0
KMNS 140610Z 34005KT 04/02 A3005 RMK A01 T00350021  RH  091%=      5-min Rain = 0
KMNS 140615Z 34006KT 04/02 A3004 RMK A01 T00350021  RH  091%=      5-min Rain = 0
KMNS 140620Z 34006KT 04/02 A3004 RMK A01 T00350021  RH  091%=      5-min Rain = 0
KMNS 140625Z 34007KT 04/02 A3004 RMK A01 T00350021  RH  091%=      5-min Rain = 0
KMNS 140630Z 34006KT 04/02 A3004 RMK A01 T00360021  RH  091%=      5-min Rain = 0
KMNS 140635Z 33006KT 04/02 A3004 RMK A01 T00360021  RH  091%=      5-min Rain = 0
KMNS 140640Z 33005KT 04/02 A3005 RMK A01 T00360022  RH  091%=      5-min Rain = 0
KMNS 140645Z 33006KT 04/02 A3005 RMK A01 T00360022  RH  091%=      5-min Rain = 0
KMNS 140650Z 33008KT 04/02 A3005 RMK A01 T00360021  RH  091%=      5-min Rain = 0
KMNS 140655Z 33007KT 04/02 A3005 RMK A01 T00370021  RH  091%=      5-min Rain = 0
KMNS 140700Z 33007KT 04/02 A3005 RMK A01 T00370021  RH  091%=      5-min Rain = 0
KMNS 140705Z 33007KT 04/02 A3005 RMK A01 T00370021  RH  091%=      5-min Rain = 0
KMNS 140710Z 33007KT 04/02 A3004 RMK A01 T00370021  RH  090%=      5-min Rain = 0
KMNS 140715Z 33008KT 04/02 A3005 RMK A01 T00370020  RH  090%=      5-min Rain = 0
KMNS 140720Z 34008KT 04/02 A3005 RMK A01 T00370019  RH  089%=      5-min Rain = 0
KMNS 140725Z 33007KT 04/02 A3005 RMK A01 T00370019  RH  089%=      5-min Rain = 0
KMNS 140730Z 33007KT 04/02 A3005 RMK A01 T00370020  RH  089%=      5-min Rain = 0
KMNS 140735Z 33007KT 04/02 A3005 RMK A01 T00380020  RH  089%=      5-min Rain = 0
KMNS 140740Z 32007KT 04/02 A3005 RMK A01 T00380021  RH  089%=      5-min Rain = 0
KMNS 140745Z 32008KT 04/02 A3005 RMK A01 T00380021  RH  090%=      5-min Rain = 0
KMNS 140750Z 32008KT 04/02 A3004 RMK A01 T00370021  RH  090%=      5-min Rain = 0
KMNS 140755Z 32008KT 04/02 A3004 RMK A01 T00370021  RH  091%=      5-min Rain = 0
KMNS 140800Z 32009KT 04/02 A3004 RMK A01 T00370021  RH  091%=      5-min Rain = 0
KMNS 140805Z 32010KT 04/02 A3004 RMK A01 T00360020  RH  090%=      5-min Rain = 0
KMNS 140810Z 32010KT 04/02 A3004 RMK A01 T00370020  RH  090%=      5-min Rain = 0
KMNS 140815Z 32011KT 04/02 A3003 RMK A01 T00370021  RH  091%=      5-min Rain = 0
KMNS 140820Z 32011KT 04/02 A3003 RMK A01 T00360021  RH  091%=      5-min Rain = 0
KMNS 140825Z 33011KT 04/02 A3004 RMK A01 T00360022  RH  091%=      5-min Rain = 0
KMNS 140830Z 33010KT 04/02 A3004 RMK A01 T00370022  RH  091%=      5-min Rain = 0
KMNS 140835Z 33010KT 04/02 A3004 RMK A01 T00370023  RH  092%=      5-min Rain = 0
KMNS 140840Z 33011KT 04/02 A3004 RMK A01 T00370023  RH  092%=      5-min Rain = 0
KMNS 140845Z 33009KT 04/02 A3004 RMK A01 T00370023  RH  092%=      5-min Rain = 0
KMNS 140850Z 33009KT 04/02 A3004 RMK A01 T00380022  RH  091%=      5-min Rain = 0
KMNS 140855Z 33009KT 04/02 A3004 RMK A01 T00380022  RH  090%=      5-min Rain = 0
KMNS 140900Z 34010KT 04/02 A3004 RMK A01 T00390021  RH  089%=      5-min Rain = 0
KMNS 140905Z 33009KT 04/02 A3004 RMK A01 T00390021  RH  089%=      5-min Rain = 0
KMNS 140910Z 34011G18KT 04/02 A3003 RMK A01 T00390020  RH  088%=      5-min Rain = 0
KMNS 140915Z 34012KT 04/02 A3003 RMK A01 T00400019  RH  087%=      5-min Rain = 0
KMNS 140920Z 34011KT 04/02 A3004 RMK A01 T00400019  RH  088%=      5-min Rain = 0
KMNS 140925Z 34011KT 04/02 A3004 RMK A01 T00400019  RH  087%=      5-min Rain = 0
KMNS 140930Z 34010KT 04/02 A3004 RMK A01 T00400020  RH  088%=      5-min Rain = 0
KMNS 140935Z 33010KT 04/02 A3004 RMK A01 T00400021  RH  089%=      5-min Rain = 0
KMNS 140940Z 33011KT 04/02 A3004 RMK A01 T00400021  RH  088%=      5-min Rain = 0
KMNS 140945Z 34011KT 04/02 A3003 RMK A01 T00400021  RH  089%=      5-min Rain = 0
KMNS 140950Z 34012KT 04/02 A3003 RMK A01 T00400020  RH  088%=      5-min Rain = 0
KMNS 140955Z 34011KT 04/02 A3003 RMK A01 T00400021  RH  088%=      5-min Rain = 0
KMNS 141000Z 34011KT 04/02 A3003 RMK A01 T00400020  RH  088%=      5-min Rain = 0
KMNS 141005Z 35012G18KT 04/02 A3003 RMK A01 T00400019  RH  087%=      5-min Rain = 0
KMNS 141010Z 35012KT 04/02 A3003 RMK A01 T00400018  RH  087%=      5-min Rain = 0
KMNS 141015Z 35012KT 04/02 A3003 RMK A01 T00390015  RH  085%=      5-min Rain = 0
KMNS 141020Z 35011KT 04/02 A3003 RMK A01 T00380016  RH  087%=      5-min Rain = 0
KMNS 141025Z 35012KT 04/02 A3003 RMK A01 T00380017  RH  087%=      5-min Rain = 0
KMNS 141030Z 35012KT 04/02 A3003 RMK A01 T00380019  RH  089%=      5-min Rain = 0
KMNS 141035Z 35012KT 04/02 A3003 RMK A01 T00370019  RH  089%=      5-min Rain = 0
KMNS 141040Z 35012KT 04/02 A3003 RMK A01 T00370016  RH  088%=      5-min Rain = 0
KMNS 141045Z 35012KT 04/01 A3003 RMK A01 T00370013  RH  086%=      5-min Rain = 0
KMNS 141050Z 35012KT 04/01 A3003 RMK A01 T00360013  RH  086%=      5-min Rain = 0
KMNS 141055Z 34011KT 04/02 A3003 RMK A01 T00360015  RH  087%=      5-min Rain = 0
KMNS 141100Z 34011KT 04/02 A3003 RMK A01 T00350017  RH  089%=      5-min Rain = 0
KMNS 141105Z 35010G15KT 04/02 A3003 RMK A01 T00350018  RH  090%=      5-min Rain = 0
KMNS 141110Z 35013KT 04/02 A3003 RMK A01 T00350018  RH  090%=      5-min Rain = 0
KMNS 141115Z 35013KT 03/02 A3003 RMK A01 T00340016  RH  089%=      5-min Rain = 0
KMNS 141120Z 35012KT 03/02 A3003 RMK A01 T00340017  RH  090%=      5-min Rain = 0
KMNS 141125Z 35012KT 03/02 A3003 RMK A01 T00330018  RH  091%=      5-min Rain = 0
KMNS 141130Z 34011KT 03/02 A3003 RMK A01 T00330019  RH  092%=      5-min Rain = 0
KMNS 141135Z 34010KT 03/02 A3003 RMK A01 T00320019  RH  092%=      5-min Rain = 0
KMNS 141140Z 34010KT 03/02 A3003 RMK A01 T00320020  RH  093%=      5-min Rain = 0
KMNS 141145Z 34010KT 03/02 A3003 RMK A01 T00320020  RH  093%=      5-min Rain = 0
KMNS 141150Z 34011KT 03/02 A3003 RMK A01 T00330020  RH  092%=      5-min Rain = 0
KMNS 141155Z 35013KT 03/02 A3002 RMK A01 T00330018  RH  091%=      5-min Rain = 0
KMNS 141200Z 34011KT 03/02 A3003 RMK A01 T00330018  RH  091%=      5-min Rain = 0
KMNS 141205Z 34011KT 03/02 A3003 RMK A01 T00330018  RH  091%=      5-min Rain = 0
KMNS 141210Z 34010KT 03/02 A3003 RMK A01 T00320019  RH  092%=      5-min Rain = 0
KMNS 141215Z 33009KT 03/02 A3003 RMK A01 T00320019  RH  092%=      5-min Rain = 0
KMNS 141220Z 33008KT 03/02 A3003 RMK A01 T00330020  RH  093%=      5-min Rain = 0
KMNS 141225Z 33007KT 03/02 A3003 RMK A01 T00330021  RH  093%=      5-min Rain = 0
KMNS 141230Z 33009KT 03/02 A3003 RMK A01 T00340022  RH  093%=      5-min Rain = 0
KMNS 141235Z 34010G15KT 04/02 A3003 RMK A01 T00350023  RH  093%=      5-min Rain = 0
KMNS 141240Z 34012KT 04/02 A3003 RMK A01 T00360023  RH  092%=      5-min Rain = 0
KMNS 141245Z 33010KT 04/02 A3003 RMK A01 T00360023  RH  092%=      5-min Rain = 0
KMNS 141250Z 33012G18KT 04/02 A3003 RMK A01 T00360022  RH  092%=      5-min Rain = 0
KMNS 141255Z 33014G19KT 03/02 A3004 RMK A01 T00340020  RH  092%=      5-min Rain = 0
KMNS 141300Z 33016G22KT 03/02 A3004 RMK A01 T00330019  RH  092%=      5-min Rain = 0
KMNS 141305Z 33016KT 03/02 A3004 RMK A01 T00310018  RH  092%=      5-min Rain = 0
KMNS 141310Z 33015G20KT 03/02 A3004 RMK A01 T00300018  RH  093%=      5-min Rain = 0
KMNS 141315Z 33015KT 03/02 A3005 RMK A01 T00300017  RH  093%=      5-min Rain = 0
KMNS 141320Z 34014G19KT 03/02 A3005 RMK A01 T00290017  RH  093%=      5-min Rain = 0
KMNS 141325Z 34013KT 03/02 A3006 RMK A01 T00300018  RH  093%=      5-min Rain = 0
KMNS 141330Z 34014G19KT 03/02 A3006 RMK A01 T00300018  RH  094%=      5-min Rain = 0
KMNS 141335Z 34014KT 03/02 A3006 RMK A01 T00300018  RH  093%=      5-min Rain = 0
KMNS 141340Z 34012KT 03/02 A3006 RMK A01 T00300018  RH  093%=      5-min Rain = 0
KMNS 141345Z 34013G19KT 03/02 A3006 RMK A01 T00290018  RH  093%=      5-min Rain = 0
KMNS 141350Z 35017G22KT 03/02 A3006 RMK A01 T00300018  RH  093%=      5-min Rain = 0
KMNS 141355Z 35018KT 03/02 A3007 RMK A01 T00300016  RH  092%=      5-min Rain = 0
KMNS 141400Z 35017G24KT 03/02 A3007 RMK A01 T00290016  RH  092%=      5-min Rain = 0
KMNS 141405Z 35014KT 03/02 A3007 RMK A01 T00290016  RH  092%=      5-min Rain = 0
KMNS 141410Z 35015KT 03/02 A3007 RMK A01 T00290016  RH  093%=      5-min Rain = 0
KMNS 141415Z 34016KT 03/02 A3008 RMK A01 T00290016  RH  093%=      5-min Rain = 0
KMNS 141420Z 34014G19KT 03/02 A3008 RMK A01 T00290016  RH  092%=      5-min Rain = 0
KMNS 141425Z 34014KT 03/02 A3008 RMK A01 T00290016  RH  092%=      5-min Rain = 0
KMNS 141430Z 34013G18KT 03/02 A3009 RMK A01 T00290017  RH  092%=      5-min Rain = 0
KMNS 141435Z 33014G20KT 03/02 A3009 RMK A01 T00290016  RH  093%=      5-min Rain = 0
KMNS 141440Z 34017G23KT 03/02 A3009 RMK A01 T00280015  RH  092%=      5-min Rain = 0.01
KMNS 141445Z 34016KT 03/01 A3009 RMK A01 T00280014  RH  092%=      5-min Rain = 0
KMNS 141450Z 34018G25KT 03/02 A3009 RMK A01 T00290015  RH  092%=      5-min Rain = 0
KMNS 141455Z 35018KT 03/02 A301 RMK A01 T00300015  RH  091%=      5-min Rain = 0
KMNS 141500Z 35019G24KT 03/01 A301 RMK A01 T00290014  RH  091%=      5-min Rain = 0
KMNS 141505Z 35021G28KT 03/01 A301 RMK A01 T00290013  RH  091%=      5-min Rain = 0
KMNS 141510Z 35020G26KT 03/01 A3011 RMK A01 T00290013  RH  090%=      5-min Rain = 0
KMNS 141515Z 35022G29KT 03/01 A3011 RMK A01 T00270011  RH  091%=      5-min Rain = 0
KMNS 141520Z 35025G34KT 02/01 A3011 RMK A01 T00230007  RH  090%=      5-min Rain = 0
KMNS 141525Z 36025G33KT 02/01 A3011 RMK A01 T00220007  RH  091%=      5-min Rain = 0
KMNS 141530Z 36025G32KT 02/01 A3011 RMK A01 T00220006  RH  090%=      5-min Rain = 0
KMNS 141535Z 36026G34KT 02/01 A3011 RMK A01 T00210005  RH  090%=      5-min Rain = 0
KMNS 141540Z 36024G30KT 02/01 A3012 RMK A01 T00210006  RH  090%=      5-min Rain = 0
KMNS 141545Z 36024G29KT 02/01 A3012 RMK A01 T00220006  RH  090%=      5-min Rain = 0
KMNS 141550Z 35025G30KT 02/01 A3012 RMK A01 T00220006  RH  090%=      5-min Rain = 0
KMNS 141555Z 36026G34KT 02/01 A3012 RMK A01 T00230006  RH  089%=      5-min Rain = 0
KMNS 141600Z 36027G33KT 02/00 A3012 RMK A01 T00230004  RH  089%=      5-min Rain = 0
KMNS 141605Z 36026G33KT 02/01 A3012 RMK A01 T00240006  RH  089%=      5-min Rain = 0
KMNS 141610Z 36021G29KT 03/01 A3012 RMK A01 T00250007  RH  090%=      5-min Rain = 0
KMNS 141615Z 35022G28KT 02/01 A3012 RMK A01 T00230007  RH  091%=      5-min Rain = 0
KMNS 141620Z 35022G27KT 02/01 A3012 RMK A01 T00230008  RH  091%=      5-min Rain = 0
KMNS 141625Z 35022G28KT 02/01 A3012 RMK A01 T00230008  RH  091%=      5-min Rain = 0
KMNS 141630Z 35023G29KT 02/01 A3012 RMK A01 T00240008  RH  091%=      5-min Rain = 0
KMNS 141635Z 35023G28KT 03/01 A3012 RMK A01 T00250009  RH  090%=      5-min Rain = 0
KMNS 141640Z 35022G30KT 03/01 A3012 RMK A01 T00270012  RH  091%=      5-min Rain = 0
KMNS 141645Z 35024G31KT 03/01 A3012 RMK A01 T00260010  RH  091%=      5-min Rain = 0
KMNS 141650Z 35026G31KT 03/01 A3012 RMK A01 T00250009  RH  090%=      5-min Rain = 0
KMNS 141655Z 35024G31KT 03/01 A3012 RMK A01 T00250009  RH  090%=      5-min Rain = 0
KMNS 141700Z 35024G32KT 03/01 A3012 RMK A01 T00250009  RH  090%=      5-min Rain = 0
KMNS 141705Z 35022G28KT 03/01 A3012 RMK A01 T00250010  RH  091%=      5-min Rain = 0
KMNS 141710Z 34021G27KT 03/01 A3012 RMK A01 T00250011  RH  092%=      5-min Rain = 0
KMNS 141715Z 34023G29KT 03/01 A3012 RMK A01 T00250011  RH  092%=      5-min Rain = 0
KMNS 141720Z 35024G30KT 03/01 A3012 RMK A01 T00250011  RH  091%=      5-min Rain = 0
KMNS 141725Z 35023KT 03/01 A3013 RMK A01 T00270011  RH  091%=      5-min Rain = 0
KMNS 141730Z 35022G28KT 03/01 A3013 RMK A01 T00290012  RH  090%=      5-min Rain = 0
KMNS 141735Z 35023G29KT 03/01 A3013 RMK A01 T00280011  RH  090%=      5-min Rain = 0
KMNS 141740Z 35021G30KT 03/01 A3013 RMK A01 T00290011  RH  089%=      5-min Rain = 0
KMNS 141745Z 35022KT 03/01 A3013 RMK A01 T00300010  RH  088%=      5-min Rain = 0
KMNS 141750Z 35021G28KT 03/01 A3013 RMK A01 T00310010  RH  087%=      5-min Rain = 0
KMNS 141755Z 36020G26KT 04/01 A3014 RMK A01 T00350012  RH  086%=      5-min Rain = 0
KMNS 141800Z 35022G27KT 03/01 A3014 RMK A01 T00310008  RH  086%=      5-min Rain = 0
KMNS 141805Z 35023G28KT 03/01 A3014 RMK A01 T00290006  RH  086%=      5-min Rain = 0.01
KMNS 141810Z 36024G30KT 03/00 A3013 RMK A01 T00300003  RH  083%=      5-min Rain = 0
KMNS 141815Z 35023G29KT 03/00 A3014 RMK A01 T00300002  RH  083%=      5-min Rain = 0
KMNS 141820Z 35024G30KT 03/00 A3014 RMK A01 T00320003  RH  082%=      5-min Rain = 0
KMNS 141825Z 35024G30KT 03/00 A3014 RMK A01 T00310001  RH  082%=      5-min Rain = 0
KMNS 141830Z 35023G30KT 03/00 A3013 RMK A01 T00320003  RH  083%=      5-min Rain = 0
KMNS 141835Z 35023G29KT 03/00 A3013 RMK A01 T00320004  RH  083%=      5-min Rain = 0
KMNS 141840Z 35024G32KT 03/00 A3013 RMK A01 T00300001  RH  082%=      5-min Rain = 0
KMNS 141845Z 36021G27KT 03/00 A3013 RMK A01 T00290001  RH  083%=      5-min Rain = 0
KMNS 141850Z 35021KT 03/00 A3013 RMK A01 T00270001  RH  084%=      5-min Rain = 0
KMNS 141855Z 36021KT 03/00 A3013 RMK A01 T00270004  RH  086%=      5-min Rain = 0
KMNS 141900Z 36021G27KT 03/00 A3013 RMK A01 T00280003  RH  085%=      5-min Rain = 0
KMNS 141905Z 36019G24KT 03/00 A3013 RMK A01 T00300004  RH  084%=      5-min Rain = 0
KMNS 141910Z 35019G25KT 03/01 A3013 RMK A01 T00310005  RH  084%=      5-min Rain = 0
KMNS 141915Z 35018KT 03/00 A3014 RMK A01 T00290003  RH  084%=      5-min Rain = 0
KMNS 141920Z 35019G25KT 03/00 A3014 RMK A01 T00300004  RH  084%=      5-min Rain = 0
KMNS 141925Z 35018KT 03/00 A3014 RMK A01 T00300003  RH  083%=      5-min Rain = 0
KMNS 141930Z 35021KT 03/00 A3014 RMK A01 T00280002  RH  084%=      5-min Rain = 0
KMNS 141935Z 35019G26KT 03/00 A3014 RMK A01 T00290002  RH  084%=      5-min Rain = 0
KMNS 141940Z 35019KT 03/00 A3014 RMK A01 T00300000  RH  082%=      5-min Rain = 0
KMNS 141945Z 36019G25KT 03/00 A3013 RMK A01 T003100-0  RH  081%=      5-min Rain = 0
KMNS 141950Z 35017G22KT 03/00 A3013 RMK A01 T00310002  RH  082%=      5-min Rain = 0
KMNS 141955Z 35018G24KT 03/00 A3013 RMK A01 T002800-0  RH  082%=      5-min Rain = 0
KMNS 142000Z 35018KT 03/00 A3013 RMK A01 T00280003  RH  084%=      5-min Rain = 0
KMNS 142005Z 35017KT 03/01 A3013 RMK A01 T00290005  RH  085%=      5-min Rain = 0
KMNS 142010Z 34018KT 03/00 A3013 RMK A01 T00300004  RH  085%=      5-min Rain = 0
KMNS 142015Z 35018G23KT 03/00 A3013 RMK A01 T00280002  RH  084%=      5-min Rain = 0
KMNS 142020Z 35017KT 03/00 A3013 RMK A01 T00280001  RH  083%=      5-min Rain = 0
KMNS 142025Z 36017G23KT 03/00 A3013 RMK A01 T00300001  RH  082%=      5-min Rain = 0
KMNS 142030Z 36019G25KT 03/M00 A3013 RMK A01 T00301003  RH  079%=      5-min Rain = 0
KMNS 142035Z 36017G22KT 03/M00 A3013 RMK A01 T00301002  RH  080%=      5-min Rain = 0
KMNS 142040Z 35020KT 03/M00 A3013 RMK A01 T00301004  RH  079%=      5-min Rain = 0
KMNS 142045Z 36018G25KT 03/M00 A3013 RMK A01 T00311004  RH  079%=      5-min Rain = 0
KMNS 142050Z 00021G27KT 03/M01 A3013 RMK A01 T00311005  RH  078%=      5-min Rain = 0
KMNS 142055Z 36020KT 03/M00 A3013 RMK A01 T00311004  RH  078%=      5-min Rain = 0
KMNS 142100Z 35020G26KT 03/M01 A3013 RMK A01 T00321006  RH  077%=      5-min Rain = 0
KMNS 142105Z 36020G25KT 03/M01 A3013 RMK A01 T00321006  RH  077%=      5-min Rain = 0
KMNS 142110Z 36021G27KT 03/M01 A3013 RMK A01 T00321009  RH  075%=      5-min Rain = 0
KMNS 142115Z 35021G27KT 03/M01 A3013 RMK A01 T00311011  RH  075%=      5-min Rain = 0
KMNS 142120Z 36021KT 03/M01 A3013 RMK A01 T00311012  RH  074%=      5-min Rain = 0
KMNS 142125Z 35020KT 03/M01 A3013 RMK A01 T00311012  RH  074%=      5-min Rain = 0
KMNS 142130Z 36020G26KT 03/M01 A3013 RMK A01 T00311013  RH  074%=      5-min Rain = 0
KMNS 142135Z 00021G26KT 03/M02 A3013 RMK A01 T00301017  RH  072%=      5-min Rain = 0
KMNS 142140Z 00020G25KT 03/M02 A3014 RMK A01 T00291019  RH  072%=      5-min Rain = 0
KMNS 142145Z 00019G24KT 03/M02 A3014 RMK A01 T00291019  RH  072%=      5-min Rain = 0
KMNS 142150Z 35021KT 03/M02 A3014 RMK A01 T00281020  RH  072%=      5-min Rain = 0
KMNS 142155Z 36019G25KT 03/M02 A3014 RMK A01 T00271019  RH  073%=      5-min Rain = 0
KMNS 142200Z 35016G21KT 03/M02 A3014 RMK A01 T00271015  RH  074%=      5-min Rain = 0
KMNS 142205Z 36018KT 03/M02 A3014 RMK A01 T00271016  RH  074%=      5-min Rain = 0
KMNS 142210Z 36019G24KT 03/M02 A3014 RMK A01 T00271017  RH  074%=      5-min Rain = 0
KMNS 142215Z 36019KT 03/M02 A3014 RMK A01 T00261018  RH  073%=      5-min Rain = 0
KMNS 142220Z 36017G22KT 03/M02 A3014 RMK A01 T00261017  RH  074%=      5-min Rain = 0
KMNS 142225Z 35016KT 03/M01 A3015 RMK A01 T00261013  RH  076%=      5-min Rain = 0
KMNS 142230Z 36015KT 03/M01 A3015 RMK A01 T00251012  RH  077%=      5-min Rain = 0
KMNS 142235Z 36013G18KT 03/M01 A3015 RMK A01 T00251011  RH  078%=      5-min Rain = 0
KMNS 142240Z 35014KT 03/M01 A3015 RMK A01 T00251012  RH  077%=      5-min Rain = 0
KMNS 142245Z 36013KT 03/M01 A3015 RMK A01 T00251011  RH  078%=      5-min Rain = 0
KMNS 142250Z 35012KT 03/M01 A3015 RMK A01 T00251010  RH  078%=      5-min Rain = 0
KMNS 142255Z 35012KT 03/M01 A3015 RMK A01 T00261010  RH  078%=      5-min Rain = 0
KMNS 142300Z 36014KT 03/M01 A3016 RMK A01 T00261013  RH  077%=      5-min Rain = 0
KMNS 142305Z 36013KT 03/M01 A3016 RMK A01 T00261013  RH  077%=      5-min Rain = 0
KMNS 142310Z 36013G18KT 03/M01 A3016 RMK A01 T00261013  RH  076%=      5-min Rain = 0
KMNS 142315Z 36013KT 03/M01 A3016 RMK A01 T00261014  RH  076%=      5-min Rain = 0
KMNS 142320Z 35012KT 03/M01 A3016 RMK A01 T00261012  RH  077%=      5-min Rain = 0
KMNS 142325Z 35012KT 03/M01 A3016 RMK A01 T00261012  RH  077%=      5-min Rain = 0
KMNS 142330Z 35012KT 03/M01 A3016 RMK A01 T00261011  RH  077%=      5-min Rain = 0
KMNS 142335Z 35013KT 03/M01 A3016 RMK A01 T00261012  RH  077%=      5-min Rain = 0
KMNS 142340Z 35013KT 03/M01 A3017 RMK A01 T00261013  RH  076%=      5-min Rain = 0
KMNS 142345Z 35012KT 03/M01 A3017 RMK A01 T00261012  RH  077%=      5-min Rain = 0
KMNS 142350Z 35013KT 03/M01 A3016 RMK A01 T00271014  RH  075%=      5-min Rain = 0
KMNS 142355Z 35013KT 03/M02 A3016 RMK A01 T00271016  RH  074%=      5-min Rain = 0
KMNS 150000Z 36013KT 03/M02 A3016 RMK A01 T00271018  RH  073%=      5-min Rain = 0
KMNS 150005Z 01013KT 03/M02 A3016 RMK A01 T00271019  RH  073%=      5-min Rain = 0
KMNS 150010Z 01011KT 03/M02 A3016 RMK A01 T00271018  RH  073%=      5-min Rain = 0
KMNS 150015Z 01011KT 03/M02 A3016 RMK A01 T00271019  RH  073%=      5-min Rain = 0
KMNS 150020Z 01010KT 03/M02 A3016 RMK A01 T00261018  RH  073%=      5-min Rain = 0
KMNS 150025Z 02010KT 03/M02 A3016 RMK A01 T00261018  RH  074%=      5-min Rain = 0
KMNS 150030Z 03009KT 03/M02 A3016 RMK A01 T00261016  RH  074%=      5-min Rain = 0
KMNS 150035Z 03009KT 03/M01 A3016 RMK A01 T00261014  RH  076%=      5-min Rain = 0
KMNS 150040Z 02009KT 03/M02 A3016 RMK A01 T00261015  RH  075%=      5-min Rain = 0
KMNS 150045Z 01008KT 03/M02 A3017 RMK A01 T00271016  RH  075%=      5-min Rain = 0
KMNS 150050Z 35008KT 03/M01 A3017 RMK A01 T00261014  RH  075%=      5-min Rain = 0
KMNS 150055Z 35007KT 03/M01 A3017 RMK A01 T00251013  RH  077%=      5-min Rain = 0
KMNS 150100Z 34006KT 03/M01 A3018 RMK A01 T00251012  RH  078%=      5-min Rain = 0
KMNS 150105Z 32004KT 03/M01 A3018 RMK A01 T00251011  RH  078%=      5-min Rain = 0
KMNS 150110Z 33005KT 02/M01 A3018 RMK A01 T00241011  RH  078%=      5-min Rain = 0
KMNS 150115Z 33005KT 02/M01 A3018 RMK A01 T00241012  RH  078%=      5-min Rain = 0
KMNS 150120Z 33005KT 03/M01 A3018 RMK A01 T00251013  RH  077%=      5-min Rain = 0
KMNS 150125Z 33005KT 03/M01 A3018 RMK A01 T00251013  RH  077%=      5-min Rain = 0
KMNS 150130Z 33005KT 03/M01 A3018 RMK A01 T00251014  RH  076%=      5-min Rain = 0
KMNS 150135Z 33005KT 03/M01 A3018 RMK A01 T00251013  RH  077%=      5-min Rain = 0
KMNS 150140Z 32005KT 03/M01 A3018 RMK A01 T00251013  RH  077%=      5-min Rain = 0
KMNS 150145Z 32005KT 02/M01 A3018 RMK A01 T00241012  RH  078%=      5-min Rain = 0
KMNS 150150Z 32005KT 03/M01 A3018 RMK A01 T00251012  RH  078%=      5-min Rain = 0
KMNS 150155Z 32005KT 03/M01 A3019 RMK A01 T00251012  RH  078%=      5-min Rain = 0
KMNS 150200Z 32005KT 03/M01 A3019 RMK A01 T00251012  RH  077%=      5-min Rain = 0
KMNS 150205Z 32005KT 03/M01 A3019 RMK A01 T00251013  RH  077%=      5-min Rain = 0
KMNS 150210Z 32005KT 03/M01 A3019 RMK A01 T00251014  RH  076%=      5-min Rain = 0
KMNS 150215Z 32005KT 03/M01 A3019 RMK A01 T00251014  RH  076%=      5-min Rain = 0
KMNS 150220Z 31005KT 03/M01 A302 RMK A01 T00251014  RH  076%=      5-min Rain = 0
KMNS 150225Z 31005KT 03/M01 A302 RMK A01 T00251014  RH  077%=      5-min Rain = 0
KMNS 150230Z 31005KT 03/M01 A302 RMK A01 T00251013  RH  077%=      5-min Rain = 0
KMNS 150235Z 30005KT 03/M01 A302 RMK A01 T00251012  RH  078%=      5-min Rain = 0
KMNS 150240Z 30005KT 03/M01 A302 RMK A01 T00251013  RH  077%=      5-min Rain = 0
KMNS 150245Z 30005KT 03/M01 A302 RMK A01 T00251014  RH  077%=      5-min Rain = 0
KMNS 150250Z 29005KT 03/M01 A302 RMK A01 T00251014  RH  076%=      5-min Rain = 0
KMNS 150255Z 29005KT 03/M02 A3021 RMK A01 T00251015  RH  076%=      5-min Rain = 0
KMNS 150300Z 29005KT 03/M02 A3021 RMK A01 T00261016  RH  075%=      5-min Rain = 0
KMNS 150305Z 28004KT 03/M01 A3021 RMK A01 T00261014  RH  076%=      5-min Rain = 0
KMNS 150310Z 28004KT 03/M01 A3021 RMK A01 T00251012  RH  077%=      5-min Rain = 0
KMNS 150315Z 28005KT 03/M01 A3021 RMK A01 T00251012  RH  078%=      5-min Rain = 0
KMNS 150320Z 28005KT 03/M01 A3022 RMK A01 T00251012  RH  078%=      5-min Rain = 0
KMNS 150325Z 28006KT 03/M01 A3021 RMK A01 T00251012  RH  077%=      5-min Rain = 0
KMNS 150330Z 28006KT 03/M01 A3021 RMK A01 T00251012  RH  078%=      5-min Rain = 0
KMNS 150335Z 28006KT 02/M01 A3021 RMK A01 T00241012  RH  078%=      5-min Rain = 0
KMNS 150340Z 28006KT 02/M01 A3021 RMK A01 T00241010  RH  079%=      5-min Rain = 0
KMNS 150345Z 28007KT 02/M01 A3021 RMK A01 T00231011  RH  079%=      5-min Rain = 0
KMNS 150350Z 28007KT 02/M01 A3021 RMK A01 T00221011  RH  080%=      5-min Rain = 0
KMNS 150355Z 28007KT 02/M01 A3021 RMK A01 T00191012  RH  080%=      5-min Rain = 0
KMNS 150400Z 28007KT 02/M01 A3021 RMK A01 T00171013  RH  081%=      5-min Rain = 0
KMNS 150405Z 28007KT 01/M01 A3021 RMK A01 T00141014  RH  083%=      5-min Rain = 0
KMNS 150410Z 28007KT 01/M01 A3021 RMK A01 T00111014  RH  084%=      5-min Rain = 0
KMNS 150415Z 28007KT 01/M01 A3021 RMK A01 T00101013  RH  085%=      5-min Rain = 0
KMNS 150420Z 29007KT 01/M01 A3021 RMK A01 T00111014  RH  084%=      5-min Rain = 0
KMNS 150425Z 29007KT 01/M02 A3021 RMK A01 T00111017  RH  083%=      5-min Rain = 0
KMNS 150430Z 29007KT 01/M02 A3021 RMK A01 T00101019  RH  082%=      5-min Rain = 0
KMNS 150435Z 29008KT 01/M02 A3021 RMK A01 T00091020  RH  082%=      5-min Rain = 0
KMNS 150440Z 29008KT 01/M02 A3021 RMK A01 T00071021  RH  082%=      5-min Rain = 0
KMNS 150445Z 29008KT 01/M02 A3021 RMK A01 T00051023  RH  082%=      5-min Rain = 0
KMNS 150450Z 30007KT 00/M02 A3021 RMK A01 T00041024  RH  083%=      5-min Rain = 0
KMNS 150455Z 30007KT 00/M02 A3021 RMK A01 T00031024  RH  083%=      5-min Rain = 0
KMNS 150500Z 29008KT 00/M02 A3021 RMK A01 T00041024  RH  083%=      5-min Rain = 0
KMNS 150505Z 30008KT 01/M02 A3021 RMK A01 T00051024  RH  082%=      5-min Rain = 0
KMNS 150510Z 30008KT 01/M02 A3021 RMK A01 T00051024  RH  082%=      5-min Rain = 0
KMNS 150515Z 30008KT 01/M02 A3021 RMK A01 T00051023  RH  082%=      5-min Rain = 0
KMNS 150520Z 30008KT 01/M02 A3021 RMK A01 T00061023  RH  082%=      5-min Rain = 0
KMNS 150525Z 30008KT 01/M02 A3021 RMK A01 T00061022  RH  082%=      5-min Rain = 0
KMNS 150530Z 30008KT 01/M02 A3021 RMK A01 T00061022  RH  083%=      5-min Rain = 0
KMNS 150535Z 30007KT 01/M02 A3021 RMK A01 T00051022  RH  083%=      5-min Rain = 0
KMNS 150540Z 30007KT 00/M02 A3021 RMK A01 T00041022  RH  084%=      5-min Rain = 0
KMNS 150545Z 29007KT 00/M02 A3021 RMK A01 T00031022  RH  084%=      5-min Rain = 0
KMNS 150550Z 30007KT 00/M02 A3021 RMK A01 T00031021  RH  085%=      5-min Rain = 0
KMNS 150555Z 30008KT 00/M02 A3021 RMK A01 T00031022  RH  085%=      5-min Rain = 0

Page generated in 0.0131 seconds.